地図

経路データ

SID SEASON NUMBER BASIN SUBBASIN NAME ISO_TIME NATURE LAT LON WMO_WIND WMO_PRES WMO_AGENCY TRACK_TYPE DIST2LAND LANDFALL IFLAG USA_AGENCY USA_ATCF_ID USA_LAT USA_LON USA_RECORD USA_STATUS USA_WIND USA_PRES USA_SSHS USA_R34_NE USA_R34_SE USA_R34_SW USA_R34_NW USA_R50_NE USA_R50_SE USA_R50_SW USA_R50_NW USA_R64_NE USA_R64_SE USA_R64_SW USA_R64_NW USA_POCI USA_ROCI USA_RMW USA_EYE TOKYO_LAT TOKYO_LON TOKYO_GRADE TOKYO_WIND TOKYO_PRES TOKYO_R50_DIR TOKYO_R50_LONG TOKYO_R50_SHORT TOKYO_R30_DIR TOKYO_R30_LONG TOKYO_R30_SHORT TOKYO_LAND CMA_LAT CMA_LON CMA_CAT CMA_WIND CMA_PRES HKO_LAT HKO_LON HKO_CAT HKO_WIND HKO_PRES NEWDELHI_LAT NEWDELHI_LON NEWDELHI_GRADE NEWDELHI_WIND NEWDELHI_PRES NEWDELHI_CI NEWDELHI_DP NEWDELHI_POCI REUNION_LAT REUNION_LON REUNION_TYPE REUNION_WIND REUNION_PRES REUNION_TNUM REUNION_CI REUNION_RMW REUNION_R34_NE REUNION_R34_SE REUNION_R34_SW REUNION_R34_NW REUNION_R50_NE REUNION_R50_SE REUNION_R50_SW REUNION_R50_NW REUNION_R64_NE REUNION_R64_SE REUNION_R64_SW REUNION_R64_NW BOM_LAT BOM_LON BOM_TYPE BOM_WIND BOM_PRES BOM_TNUM BOM_CI BOM_RMW BOM_R34_NE BOM_R34_SE BOM_R34_SW BOM_R34_NW BOM_R50_NE BOM_R50_SE BOM_R50_SW BOM_R50_NW BOM_R64_NE BOM_R64_SE BOM_R64_SW BOM_R64_NW BOM_ROCI BOM_POCI BOM_EYE BOM_POS_METHOD BOM_PRES_METHOD NADI_LAT NADI_LON NADI_CAT NADI_WIND NADI_PRES WELLINGTON_LAT WELLINGTON_LON WELLINGTON_WIND WELLINGTON_PRES DS824_LAT DS824_LON DS824_STAGE DS824_WIND DS824_PRES TD9636_LAT TD9636_LON TD9636_STAGE TD9636_WIND TD9636_PRES TD9635_LAT TD9635_LON TD9635_WIND TD9635_PRES TD9635_ROCI NEUMANN_LAT NEUMANN_LON NEUMANN_CLASS NEUMANN_WIND NEUMANN_PRES MLC_LAT MLC_LON MLC_CLASS MLC_WIND MLC_PRES USA_GUST BOM_GUST BOM_GUST_PER REUNION_GUST REUNION_GUST_PER USA_SEAHGT USA_SEARAD_NE USA_SEARAD_SE USA_SEARAD_SW USA_SEARAD_NW STORM_SPEED STORM_DIR
1854325S10073 1855 19 SI MM NOT_NAMED 1854-11-21 06:00:00 NR -10.1000 73.1000 reunion main 1972 1972 _____O________ -1 -10.1000 73.1000 99 9.90000 3 213
1854325S10073 1855 19 SI MM NOT_NAMED 1854-11-21 09:00:00 NR -10.2197 73.0177 main 1979 1963 _____P________ -1 -10.2197 73.0177 99 3 214
1854325S10073 1855 19 SI MM NOT_NAMED 1854-11-21 12:00:00 NR -10.3481 72.9302 main 1963 1941 _____P________ -1 -10.3481 72.9302 99 3 213
1854325S10073 1855 19 SI MM NOT_NAMED 1854-11-21 15:00:00 NR -10.4943 72.8322 main 1941 1920 _____P________ -1 -10.4943 72.8322 99 4 213
1854325S10073 1855 19 SI MM NOT_NAMED 1854-11-21 18:00:00 NR -10.6669 72.7185 main 1920 1898 _____P________ -1 -10.6669 72.7185 99 5 213
1854325S10073 1855 19 SI MM NOT_NAMED 1854-11-21 21:00:00 NR -10.8750 72.5839 main 1898 1867 _____P________ -1 -10.8750 72.5839 99 5 212
1854325S10073 1855 19 SI MM NOT_NAMED 1854-11-22 00:00:00 NR -11.1273 72.4228 main 1867 1830 _____P________ -1 -11.1273 72.4228 99 7 212
1854325S10073 1855 19 SI MM NOT_NAMED 1854-11-22 03:00:00 NR -11.4327 72.2301 main 1830 1787 _____P________ -1 -11.4327 72.2301 99 8 212
1854325S10073 1855 19 SI MM NOT_NAMED 1854-11-22 06:00:00 NR -11.8000 72.0000 reunion main 1787 1736 _____O________ -1 -11.8000 72.0000 99 9.90000 9 211
1854325S10073 1855 19 SI MM NOT_NAMED 1854-11-22 09:00:00 NR -12.2342 71.7294 main 1736 1678 _____P________ -1 -12.2342 71.7294 99 11 211
1854325S10073 1855 19 SI MM NOT_NAMED 1854-11-22 12:00:00 NR -12.7242 71.4249 main 1678 1622 _____P________ -1 -12.7242 71.4249 99 12 211
1854325S10073 1855 19 SI MM NOT_NAMED 1854-11-22 15:00:00 NR -13.2552 71.0955 main 1616 1560 _____P________ -1 -13.2552 71.0955 99 13 211
1854325S10073 1855 19 SI MM NOT_NAMED 1854-11-22 18:00:00 NR -13.8120 70.7502 main 1560 1496 _____P________ -1 -13.8120 70.7502 99 13 211
1854325S10073 1855 19 SI MM NOT_NAMED 1854-11-22 21:00:00 NR -14.3798 70.3985 main 1490 1436 _____P________ -1 -14.3798 70.3985 99 13 211
1854325S10073 1855 19 SI MM NOT_NAMED 1854-11-23 00:00:00 NR -14.9435 70.0498 main 1426 1368 _____P________ -1 -14.9435 70.0498 99 13 211
1854325S10073 1855 19 SI MM NOT_NAMED 1854-11-23 03:00:00 NR -15.4885 69.7137 main 1368 1316 _____P________ -1 -15.4885 69.7137 99 12 211
1854325S10073 1855 19 SI MM NOT_NAMED 1854-11-23 06:00:00 NR -16.0000 69.4000 reunion main 1316 1269 _____O________ -1 -16.0000 69.4000 99 9.90000 11 210
1854325S10073 1855 19 SI MM NOT_NAMED 1854-11-23 09:00:00 NR -16.4394 69.1349 main 1269 1233 _____P________ -1 -16.4394 69.1349 99 10 210
1854325S10073 1855 19 SI MM NOT_NAMED 1854-11-23 12:00:00 NR -16.8537 68.8882 main 1229 1198 _____P________ -1 -16.8537 68.8882 99 9 210
1854325S10073 1855 19 SI MM NOT_NAMED 1854-11-23 15:00:00 NR -17.2445 68.6580 main 1198 1164 _____P________ -1 -17.2445 68.6580 99 9 209
1854325S10073 1855 19 SI MM NOT_NAMED 1854-11-23 18:00:00 NR -17.6134 68.4429 main 1154 1135 _____P________ -1 -17.6134 68.4429 99 8 209
1854325S10073 1855 19 SI MM NOT_NAMED 1854-11-23 21:00:00 NR -17.9619 68.2412 main 1122 1103 _____P________ -1 -17.9619 68.2412 99 8 209
1854325S10073 1855 19 SI MM NOT_NAMED 1854-11-24 00:00:00 NR -18.2915 68.0512 main 1103 1075 _____P________ -1 -18.2915 68.0512 99 7 209
1854325S10073 1855 19 SI MM NOT_NAMED 1854-11-24 03:00:00 NR -18.6037 67.8714 main 1075 1048 _____P________ -1 -18.6037 67.8714 99 7 209
1854325S10073 1855 19 SI MM NOT_NAMED 1854-11-24 06:00:00 NR -18.9000 67.7000 reunion main 1048 1022 _____O________ -1 -18.9000 67.7000 99 9.90000 7 210
1854325S10073 1855 19 SI MM NOT_NAMED 1854-11-24 09:00:00 NR -19.1954 67.5109 main 1022 997 _____P________ -1 -19.1954 67.5109 99 7 211
1854325S10073 1855 19 SI MM NOT_NAMED 1854-11-24 12:00:00 NR -19.4725 67.3307 main 997 984 _____P________ -1 -19.4725 67.3307 99 6 212
1854325S10073 1855 19 SI MM NOT_NAMED 1854-11-24 15:00:00 NR -19.7338 67.1605 main 984 960 _____P________ -1 -19.7338 67.1605 99 6 211
1854325S10073 1855 19 SI MM NOT_NAMED 1854-11-24 18:00:00 NR -19.9821 67.0016 main 960 949 _____P________ -1 -19.9821 67.0016 99 6 211
1854325S10073 1855 19 SI MM NOT_NAMED 1854-11-24 21:00:00 NR -20.2202 66.8550 main 949 927 _____P________ -1 -20.2202 66.8550 99 5 209
1854325S10073 1855 19 SI MM NOT_NAMED 1854-11-25 00:00:00 NR -20.4507 66.7217 main 927 917 _____P________ -1 -20.4507 66.7217 99 5 207
1854325S10073 1855 19 SI MM NOT_NAMED 1854-11-25 03:00:00 NR -20.6764 66.6030 main 917 907 _____P________ -1 -20.6764 66.6030 99 5 205
1854325S10073 1855 19 SI MM NOT_NAMED 1854-11-25 06:00:00 NR -20.9000 66.5000 reunion main 907 898 _____O________ -1 -20.9000 66.5000 99 9.90000 5 202
1854325S10073 1855 19 SI MM NOT_NAMED 1854-11-25 09:00:00 NR -21.1379 66.4028 main 898 890 _____P________ -1 -21.1379 66.4028 99 5 199
1854325S10073 1855 19 SI MM NOT_NAMED 1854-11-25 12:00:00 NR -21.3722 66.3215 main 891 891 _____P________ -1 -21.3722 66.3215 99 5 196
1854325S10073 1855 19 SI MM NOT_NAMED 1854-11-25 15:00:00 NR -21.6027 66.2549 main 894 884 _____P________ -1 -21.6027 66.2549 99 5 194
1854325S10073 1855 19 SI MM NOT_NAMED 1854-11-25 18:00:00 NR -21.8296 66.2018 main 887 887 _____P________ -1 -21.8296 66.2018 99 5 191
1854325S10073 1855 19 SI MM NOT_NAMED 1854-11-25 21:00:00 NR -22.0528 66.1610 main 893 883 _____P________ -1 -22.0528 66.1610 99 5 189
1854325S10073 1855 19 SI MM NOT_NAMED 1854-11-26 00:00:00 NR -22.2723 66.1312 main 888 888 _____P________ -1 -22.2723 66.1312 99 4 185
1854325S10073 1855 19 SI MM NOT_NAMED 1854-11-26 03:00:00 NR -22.4880 66.1113 main 893 893 _____P________ -1 -22.4880 66.1113 99 4 186
1854325S10073 1855 19 SI MM NOT_NAMED 1854-11-26 06:00:00 NR -22.7000 66.1000 reunion main 899 899 _____O________ -1 -22.7000 66.1000 99 9.90000 4 182
1854325S10073 1855 19 SI MM NOT_NAMED 1854-11-26 09:00:00 NR -22.9083 66.0961 main 905 905 _____P________ -1 -22.9083 66.0961 99 4 0
1854325S10073 1855 19 SI MM NOT_NAMED 1854-11-26 12:00:00 NR -23.1133 66.0988 main 912 912 _____P________ -1 -23.1133 66.0988 99 4 178
1854325S10073 1855 19 SI MM NOT_NAMED 1854-11-26 15:00:00 NR -23.3154 66.1070 main 919 919 _____P________ -1 -23.3154 66.1070 99 4 0
1854325S10073 1855 19 SI MM NOT_NAMED 1854-11-26 18:00:00 NR -23.5152 66.1199 main 927 927 _____P________ -1 -23.5152 66.1199 99 4 0
1854325S10073 1855 19 SI MM NOT_NAMED 1854-11-26 21:00:00 NR -23.7130 66.1366 main 935 935 _____P________ -1 -23.7130 66.1366 99 4 175
1854325S10073 1855 19 SI MM NOT_NAMED 1854-11-27 00:00:00 NR -23.9095 66.1561 main 953 953 _____P________ -1 -23.9095 66.1561 99 4 175
1854325S10073 1855 19 SI MM NOT_NAMED 1854-11-27 03:00:00 NR -24.1050 66.1775 main 962 962 _____P________ -1 -24.1050 66.1775 99 4 176
1854325S10073 1855 19 SI MM NOT_NAMED 1854-11-27 06:00:00 NR -24.3000 66.2000 reunion main 971 _____O________ -1 -24.3000 66.2000 99 9.90000 4 0

IBTrACS Databaseについて

本データベースは、米国NOAAが公開する1842年以降の世界の熱帯低気圧のベストトラックデータアーカイブInternational Best Track Archive for Climate Stewardship (IBTrACS)を、ウェブで閲覧しやすい形式に変換したものです。

最終更新日:2021-10-08